sensor_id;sensor_type;location;lat;lon;timestamp;P1;durP1;ratioP1;P2;durP2;ratioP2
59728;SDS011;45588;51.598;5.618;2023-06-26T00:01:09;22.65;;;20.75;;
59728;SDS011;45588;51.598;5.618;2023-06-26T00:03:35;21.47;;;19.87;;
59728;SDS011;45588;51.598;5.618;2023-06-26T00:06:00;23.40;;;21.17;;
59728;SDS011;45588;51.598;5.618;2023-06-26T00:08:25;22.48;;;20.45;;
59728;SDS011;45588;51.598;5.618;2023-06-26T00:10:51;21.95;;;20.00;;
59728;SDS011;45588;51.598;5.618;2023-06-26T00:13:16;20.63;;;18.90;;
59728;SDS011;45588;51.598;5.618;2023-06-26T00:15:41;20.58;;;18.70;;
59728;SDS011;45588;51.598;5.618;2023-06-26T00:18:06;19.33;;;17.63;;
59728;SDS011;45588;51.598;5.618;2023-06-26T00:20:32;20.17;;;18.53;;
59728;SDS011;45588;51.598;5.618;2023-06-26T00:22:59;17.90;;;16.33;;
59728;SDS011;45588;51.598;5.618;2023-06-26T00:25:24;16.35;;;14.93;;
59728;SDS011;45588;51.598;5.618;2023-06-26T00:27:49;15.33;;;13.37;;
59728;SDS011;45588;51.598;5.618;2023-06-26T00:30:14;14.23;;;12.77;;
59728;SDS011;45588;51.598;5.618;2023-06-26T00:32:40;14.63;;;13.27;;
59728;SDS011;45588;51.598;5.618;2023-06-26T00:35:05;13.77;;;12.57;;
59728;SDS011;45588;51.598;5.618;2023-06-26T00:37:30;15.48;;;14.05;;
59728;SDS011;45588;51.598;5.618;2023-06-26T00:39:55;13.67;;;12.47;;
59728;SDS011;45588;51.598;5.618;2023-06-26T00:42:21;14.33;;;13.20;;
59728;SDS011;45588;51.598;5.618;2023-06-26T00:44:46;13.50;;;12.40;;
59728;SDS011;45588;51.598;5.618;2023-06-26T00:47:12;12.53;;;11.50;;
59728;SDS011;45588;51.598;5.618;2023-06-26T00:49:39;12.98;;;11.77;;
59728;SDS011;45588;51.598;5.618;2023-06-26T00:52:04;13.35;;;12.25;;
59728;SDS011;45588;51.598;5.618;2023-06-26T00:54:30;14.55;;;13.10;;
59728;SDS011;45588;51.598;5.618;2023-06-26T00:56:56;12.52;;;11.38;;
59728;SDS011;45588;51.598;5.618;2023-06-26T00:59:21;13.88;;;12.52;;
59728;SDS011;45588;51.598;5.618;2023-06-26T01:01:46;13.00;;;11.85;;
59728;SDS011;45588;51.598;5.618;2023-06-26T01:04:13;13.85;;;12.55;;
59728;SDS011;45588;51.598;5.618;2023-06-26T01:06:42;13.77;;;12.68;;
59728;SDS011;45588;51.598;5.618;2023-06-26T01:09:08;12.50;;;11.40;;
59728;SDS011;45588;51.598;5.618;2023-06-26T01:11:33;13.90;;;12.65;;
59728;SDS011;45588;51.598;5.618;2023-06-26T01:13:59;12.60;;;11.50;;
59728;SDS011;45588;51.598;5.618;2023-06-26T01:16:24;13.27;;;12.18;;
59728;SDS011;45588;51.598;5.618;2023-06-26T01:18:50;14.57;;;13.27;;
59728;SDS011;45588;51.598;5.618;2023-06-26T01:21:15;14.75;;;12.65;;
59728;SDS011;45588;51.598;5.618;2023-06-26T01:26:21;15.70;;;13.60;;
59728;SDS011;45588;51.598;5.618;2023-06-26T01:28:47;15.82;;;14.32;;
59728;SDS011;45588;51.598;5.618;2023-06-26T01:31:14;16.00;;;14.57;;
59728;SDS011;45588;51.598;5.618;2023-06-26T01:33:40;15.48;;;14.13;;
59728;SDS011;45588;51.598;5.618;2023-06-26T01:36:05;14.70;;;13.30;;
59728;SDS011;45588;51.598;5.618;2023-06-26T01:38:31;16.23;;;14.93;;
59728;SDS011;45588;51.598;5.618;2023-06-26T01:40:56;15.00;;;13.75;;
59728;SDS011;45588;51.598;5.618;2023-06-26T01:45:59;15.75;;;14.27;;
59728;SDS011;45588;51.598;5.618;2023-06-26T01:48:28;17.77;;;11.13;;
59728;SDS011;45588;51.598;5.618;2023-06-26T01:50:54;14.57;;;13.27;;
59728;SDS011;45588;51.598;5.618;2023-06-26T01:53:23;13.50;;;12.15;;
59728;SDS011;45588;51.598;5.618;2023-06-26T01:58:15;12.35;;;11.15;;
59728;SDS011;45588;51.598;5.618;2023-06-26T02:00:42;12.52;;;11.27;;
59728;SDS011;45588;51.598;5.618;2023-06-26T02:03:07;13.60;;;12.27;;
59728;SDS011;45588;51.598;5.618;2023-06-26T02:05:32;13.43;;;11.53;;
59728;SDS011;45588;51.598;5.618;2023-06-26T02:07:58;11.88;;;10.68;;
59728;SDS011;45588;51.598;5.618;2023-06-26T02:10:23;11.23;;;10.18;;
59728;SDS011;45588;51.598;5.618;2023-06-26T02:12:48;11.17;;;10.10;;
59728;SDS011;45588;51.598;5.618;2023-06-26T02:15:13;12.15;;;10.95;;
59728;SDS011;45588;51.598;5.618;2023-06-26T02:17:38;10.73;;;9.70;;
59728;SDS011;45588;51.598;5.618;2023-06-26T02:20:04;12.67;;;6.33;;
59728;SDS011;45588;51.598;5.618;2023-06-26T02:22:30;11.85;;;9.70;;
59728;SDS011;45588;51.598;5.618;2023-06-26T02:24:56;12.20;;;9.32;;
59728;SDS011;45588;51.598;5.618;2023-06-26T02:27:21;10.50;;;9.50;;
59728;SDS011;45588;51.598;5.618;2023-06-26T02:29:46;11.68;;;9.23;;
59728;SDS011;45588;51.598;5.618;2023-06-26T02:32:11;11.87;;;9.27;;
59728;SDS011;45588;51.598;5.618;2023-06-26T02:34:36;10.80;;;9.70;;
59728;SDS011;45588;51.598;5.618;2023-06-26T02:37:02;10.40;;;9.33;;
59728;SDS011;45588;51.598;5.618;2023-06-26T02:39:27;11.82;;;8.27;;
59728;SDS011;45588;51.598;5.618;2023-06-26T02:41:52;12.05;;;9.75;;
59728;SDS011;45588;51.598;5.618;2023-06-26T02:44:18;8.50;;;5.50;;
59728;SDS011;45588;51.598;5.618;2023-06-26T02:46:43;9.80;;;7.78;;
59728;SDS011;45588;51.598;5.618;2023-06-26T02:49:08;11.35;;;8.38;;
59728;SDS011;45588;51.598;5.618;2023-06-26T02:51:34;12.57;;;9.27;;
59728;SDS011;45588;51.598;5.618;2023-06-26T02:53:59;9.97;;;7.93;;
59728;SDS011;45588;51.598;5.618;2023-06-26T02:56:24;9.05;;;7.85;;
59728;SDS011;45588;51.598;5.618;2023-06-26T02:58:54;11.25;;;8.35;;
59728;SDS011;45588;51.598;5.618;2023-06-26T03:01:19;8.00;;;5.13;;
59728;SDS011;45588;51.598;5.618;2023-06-26T03:03:45;9.15;;;7.97;;
59728;SDS011;45588;51.598;5.618;2023-06-26T03:06:12;10.27;;;8.63;;
59728;SDS011;45588;51.598;5.618;2023-06-26T03:08:37;11.43;;;8.13;;
59728;SDS011;45588;51.598;5.618;2023-06-26T03:11:04;7.72;;;5.18;;
59728;SDS011;45588;51.598;5.618;2023-06-26T03:13:29;11.73;;;8.70;;
59728;SDS011;45588;51.598;5.618;2023-06-26T03:15:54;11.67;;;8.17;;
59728;SDS011;45588;51.598;5.618;2023-06-26T03:18:19;10.97;;;7.47;;
59728;SDS011;45588;51.598;5.618;2023-06-26T03:20:44;13.20;;;8.10;;
59728;SDS011;45588;51.598;5.618;2023-06-26T03:23:10;12.10;;;8.63;;
59728;SDS011;45588;51.598;5.618;2023-06-26T03:25:35;9.35;;;8.27;;
59728;SDS011;45588;51.598;5.618;2023-06-26T03:28:00;11.57;;;9.02;;
59728;SDS011;45588;51.598;5.618;2023-06-26T03:30:26;7.33;;;5.60;;
59728;SDS011;45588;51.598;5.618;2023-06-26T03:32:51;12.32;;;9.13;;
59728;SDS011;45588;51.598;5.618;2023-06-26T03:35:16;10.17;;;8.60;;
59728;SDS011;45588;51.598;5.618;2023-06-26T03:37:41;11.63;;;9.15;;
59728;SDS011;45588;51.598;5.618;2023-06-26T03:40:07;11.80;;;8.45;;
59728;SDS011;45588;51.598;5.618;2023-06-26T03:42:32;10.10;;;8.40;;
59728;SDS011;45588;51.598;5.618;2023-06-26T03:44:57;10.07;;;7.73;;
59728;SDS011;45588;51.598;5.618;2023-06-26T03:47:22;12.00;;;4.60;;
59728;SDS011;45588;51.598;5.618;2023-06-26T03:49:48;12.63;;;8.33;;
59728;SDS011;45588;51.598;5.618;2023-06-26T03:52:13;10.50;;;8.07;;
59728;SDS011;45588;51.598;5.618;2023-06-26T03:54:38;11.83;;;8.20;;
59728;SDS011;45588;51.598;5.618;2023-06-26T03:57:03;9.85;;;6.85;;
59728;SDS011;45588;51.598;5.618;2023-06-26T03:59:29;11.50;;;8.70;;
59728;SDS011;45588;51.598;5.618;2023-06-26T04:01:54;10.50;;;4.87;;
59728;SDS011;45588;51.598;5.618;2023-06-26T04:04:19;13.68;;;8.27;;
59728;SDS011;45588;51.598;5.618;2023-06-26T04:06:44;12.83;;;4.57;;
59728;SDS011;45588;51.598;5.618;2023-06-26T04:09:09;9.47;;;5.10;;
59728;SDS011;45588;51.598;5.618;2023-06-26T04:11:34;13.30;;;8.37;;
59728;SDS011;45588;51.598;5.618;2023-06-26T04:14:00;14.13;;;8.53;;
59728;SDS011;45588;51.598;5.618;2023-06-26T04:16:25;8.60;;;5.73;;
59728;SDS011;45588;51.598;5.618;2023-06-26T04:18:50;10.10;;;5.37;;
59728;SDS011;45588;51.598;5.618;2023-06-26T04:21:16;14.80;;;5.32;;
59728;SDS011;45588;51.598;5.618;2023-06-26T04:23:41;14.27;;;8.50;;
59728;SDS011;45588;51.598;5.618;2023-06-26T04:26:07;12.32;;;8.65;;
59728;SDS011;45588;51.598;5.618;2023-06-26T04:28:33;14.93;;;8.73;;
59728;SDS011;45588;51.598;5.618;2023-06-26T04:30:58;9.32;;;4.72;;
59728;SDS011;45588;51.598;5.618;2023-06-26T04:33:24;10.18;;;4.80;;
59728;SDS011;45588;51.598;5.618;2023-06-26T04:35:49;14.63;;;8.90;;
59728;SDS011;45588;51.598;5.618;2023-06-26T04:38:14;16.00;;;9.27;;
59728;SDS011;45588;51.598;5.618;2023-06-26T04:40:40;14.18;;;7.65;;
59728;SDS011;45588;51.598;5.618;2023-06-26T04:43:05;16.23;;;9.02;;
59728;SDS011;45588;51.598;5.618;2023-06-26T04:45:30;15.37;;;8.63;;
59728;SDS011;45588;51.598;5.618;2023-06-26T04:47:56;13.55;;;8.13;;
59728;SDS011;45588;51.598;5.618;2023-06-26T04:50:22;17.90;;;8.48;;
59728;SDS011;45588;51.598;5.618;2023-06-26T04:52:47;16.63;;;6.25;;
59728;SDS011;45588;51.598;5.618;2023-06-26T04:55:12;10.32;;;4.82;;
59728;SDS011;45588;51.598;5.618;2023-06-26T04:57:37;16.00;;;9.00;;
59728;SDS011;45588;51.598;5.618;2023-06-26T05:00:03;13.17;;;7.80;;
59728;SDS011;45588;51.598;5.618;2023-06-26T05:02:31;12.85;;;8.40;;
59728;SDS011;45588;51.598;5.618;2023-06-26T05:04:56;16.17;;;9.20;;
59728;SDS011;45588;51.598;5.618;2023-06-26T05:07:21;15.23;;;9.07;;
59728;SDS011;45588;51.598;5.618;2023-06-26T05:09:46;13.80;;;8.80;;
59728;SDS011;45588;51.598;5.618;2023-06-26T05:12:12;21.60;;;8.70;;
59728;SDS011;45588;51.598;5.618;2023-06-26T05:14:37;13.20;;;8.88;;
59728;SDS011;45588;51.598;5.618;2023-06-26T05:17:03;16.50;;;9.15;;
59728;SDS011;45588;51.598;5.618;2023-06-26T05:19:28;16.25;;;8.90;;
59728;SDS011;45588;51.598;5.618;2023-06-26T05:21:53;19.03;;;9.37;;
59728;SDS011;45588;51.598;5.618;2023-06-26T05:24:19;15.35;;;8.90;;
59728;SDS011;45588;51.598;5.618;2023-06-26T05:26:44;15.90;;;8.88;;
59728;SDS011;45588;51.598;5.618;2023-06-26T05:29:09;12.60;;;4.75;;
59728;SDS011;45588;51.598;5.618;2023-06-26T05:31:35;17.05;;;8.70;;
59728;SDS011;45588;51.598;5.618;2023-06-26T05:34:05;16.77;;;8.57;;
59728;SDS011;45588;51.598;5.618;2023-06-26T05:36:31;16.48;;;8.63;;
59728;SDS011;45588;51.598;5.618;2023-06-26T05:38:58;16.17;;;7.72;;
59728;SDS011;45588;51.598;5.618;2023-06-26T05:41:23;15.43;;;7.88;;
59728;SDS011;45588;51.598;5.618;2023-06-26T05:43:49;22.77;;;8.85;;
59728;SDS011;45588;51.598;5.618;2023-06-26T05:46:14;13.90;;;7.43;;
59728;SDS011;45588;51.598;5.618;2023-06-26T05:48:40;15.90;;;7.55;;
59728;SDS011;45588;51.598;5.618;2023-06-26T05:51:05;17.30;;;7.95;;
59728;SDS011;45588;51.598;5.618;2023-06-26T05:53:31;15.30;;;7.53;;
59728;SDS011;45588;51.598;5.618;2023-06-26T05:55:56;15.95;;;7.80;;
59728;SDS011;45588;51.598;5.618;2023-06-26T05:58:23;22.08;;;7.93;;
59728;SDS011;45588;51.598;5.618;2023-06-26T06:00:48;18.20;;;7.90;;
59728;SDS011;45588;51.598;5.618;2023-06-26T06:03:14;15.07;;;7.70;;
59728;SDS011;45588;51.598;5.618;2023-06-26T06:05:39;20.38;;;7.20;;
59728;SDS011;45588;51.598;5.618;2023-06-26T06:08:04;15.17;;;6.80;;
59728;SDS011;45588;51.598;5.618;2023-06-26T06:10:29;14.95;;;6.30;;
59728;SDS011;45588;51.598;5.618;2023-06-26T06:12:54;15.60;;;6.17;;
59728;SDS011;45588;51.598;5.618;2023-06-26T06:15:20;17.13;;;6.40;;
59728;SDS011;45588;51.598;5.618;2023-06-26T06:17:45;13.27;;;5.50;;
59728;SDS011;45588;51.598;5.618;2023-06-26T06:20:10;12.68;;;5.28;;
59728;SDS011;45588;51.598;5.618;2023-06-26T06:22:35;17.42;;;6.28;;
59728;SDS011;45588;51.598;5.618;2023-06-26T06:25:00;14.87;;;5.87;;
59728;SDS011;45588;51.598;5.618;2023-06-26T06:27:26;16.42;;;5.57;;
59728;SDS011;45588;51.598;5.618;2023-06-26T06:29:51;11.65;;;5.78;;
59728;SDS011;45588;51.598;5.618;2023-06-26T06:32:17;12.67;;;5.70;;
59728;SDS011;45588;51.598;5.618;2023-06-26T06:34:42;14.77;;;6.45;;
59728;SDS011;45588;51.598;5.618;2023-06-26T06:37:08;14.17;;;5.67;;
59728;SDS011;45588;51.598;5.618;2023-06-26T06:39:33;15.43;;;5.53;;
59728;SDS011;45588;51.598;5.618;2023-06-26T06:41:58;14.13;;;6.17;;
59728;SDS011;45588;51.598;5.618;2023-06-26T06:44:23;13.37;;;4.90;;
59728;SDS011;45588;51.598;5.618;2023-06-26T06:46:48;12.37;;;5.00;;
59728;SDS011;45588;51.598;5.618;2023-06-26T06:49:14;11.68;;;5.78;;
59728;SDS011;45588;51.598;5.618;2023-06-26T06:51:39;12.90;;;5.27;;
59728;SDS011;45588;51.598;5.618;2023-06-26T06:54:04;14.57;;;5.23;;
59728;SDS011;45588;51.598;5.618;2023-06-26T06:56:29;15.60;;;6.10;;
59728;SDS011;45588;51.598;5.618;2023-06-26T06:58:55;17.08;;;5.72;;
59728;SDS011;45588;51.598;5.618;2023-06-26T07:01:20;15.43;;;5.60;;
59728;SDS011;45588;51.598;5.618;2023-06-26T07:03:45;12.17;;;5.27;;
59728;SDS011;45588;51.598;5.618;2023-06-26T07:06:10;12.97;;;5.53;;
59728;SDS011;45588;51.598;5.618;2023-06-26T07:08:35;11.17;;;5.03;;
59728;SDS011;45588;51.598;5.618;2023-06-26T07:11:01;12.90;;;5.37;;
59728;SDS011;45588;51.598;5.618;2023-06-26T07:13:26;14.52;;;5.78;;
59728;SDS011;45588;51.598;5.618;2023-06-26T07:15:51;8.47;;;4.80;;
59728;SDS011;45588;51.598;5.618;2023-06-26T07:18:17;14.60;;;5.57;;
59728;SDS011;45588;51.598;5.618;2023-06-26T07:20:42;12.07;;;5.45;;
59728;SDS011;45588;51.598;5.618;2023-06-26T07:23:08;10.57;;;5.37;;
59728;SDS011;45588;51.598;5.618;2023-06-26T07:25:33;14.25;;;5.68;;
59728;SDS011;45588;51.598;5.618;2023-06-26T07:27:58;11.15;;;4.88;;
59728;SDS011;45588;51.598;5.618;2023-06-26T07:30:23;10.50;;;4.63;;
59728;SDS011;45588;51.598;5.618;2023-06-26T07:32:49;13.77;;;5.75;;
59728;SDS011;45588;51.598;5.618;2023-06-26T07:35:15;14.13;;;5.50;;
59728;SDS011;45588;51.598;5.618;2023-06-26T07:37:41;10.90;;;5.05;;
59728;SDS011;45588;51.598;5.618;2023-06-26T07:40:06;9.48;;;5.50;;
59728;SDS011;45588;51.598;5.618;2023-06-26T07:42:31;10.93;;;5.47;;
59728;SDS011;45588;51.598;5.618;2023-06-26T07:44:56;10.00;;;5.32;;
59728;SDS011;45588;51.598;5.618;2023-06-26T07:47:22;9.27;;;5.10;;
59728;SDS011;45588;51.598;5.618;2023-06-26T07:49:47;12.87;;;5.33;;
59728;SDS011;45588;51.598;5.618;2023-06-26T07:52:12;9.77;;;5.55;;
59728;SDS011;45588;51.598;5.618;2023-06-26T07:54:40;9.82;;;5.03;;
59728;SDS011;45588;51.598;5.618;2023-06-26T07:57:05;8.85;;;5.30;;
59728;SDS011;45588;51.598;5.618;2023-06-26T07:59:34;10.07;;;5.40;;
59728;SDS011;45588;51.598;5.618;2023-06-26T08:01:59;9.50;;;5.57;;
59728;SDS011;45588;51.598;5.618;2023-06-26T08:04:25;8.00;;;5.18;;
59728;SDS011;45588;51.598;5.618;2023-06-26T08:06:52;8.77;;;5.50;;
59728;SDS011;45588;51.598;5.618;2023-06-26T08:09:18;10.20;;;6.22;;
59728;SDS011;45588;51.598;5.618;2023-06-26T08:11:43;9.48;;;5.60;;
59728;SDS011;45588;51.598;5.618;2023-06-26T08:14:09;7.43;;;6.10;;
59728;SDS011;45588;51.598;5.618;2023-06-26T08:16:34;10.15;;;5.28;;
59728;SDS011;45588;51.598;5.618;2023-06-26T08:19:00;8.33;;;5.80;;
59728;SDS011;45588;51.598;5.618;2023-06-26T08:21:25;10.57;;;5.00;;
59728;SDS011;45588;51.598;5.618;2023-06-26T08:23:50;10.37;;;4.60;;
59728;SDS011;45588;51.598;5.618;2023-06-26T08:26:15;7.32;;;4.45;;
59728;SDS011;45588;51.598;5.618;2023-06-26T08:28:40;4.63;;;3.73;;
59728;SDS011;45588;51.598;5.618;2023-06-26T08:31:06;6.93;;;3.77;;
59728;SDS011;45588;51.598;5.618;2023-06-26T08:33:31;6.03;;;3.70;;
59728;SDS011;45588;51.598;5.618;2023-06-26T08:35:56;5.40;;;2.57;;
59728;SDS011;45588;51.598;5.618;2023-06-26T08:38:21;4.60;;;2.30;;
59728;SDS011;45588;51.598;5.618;2023-06-26T08:40:47;6.32;;;2.60;;
59728;SDS011;45588;51.598;5.618;2023-06-26T08:43:12;4.28;;;2.13;;
59728;SDS011;45588;51.598;5.618;2023-06-26T08:45:37;3.15;;;1.92;;
59728;SDS011;45588;51.598;5.618;2023-06-26T08:48:02;9.97;;;2.43;;
59728;SDS011;45588;51.598;5.618;2023-06-26T08:50:30;5.18;;;2.30;;
59728;SDS011;45588;51.598;5.618;2023-06-26T08:53:04;2.60;;;1.85;;
59728;SDS011;45588;51.598;5.618;2023-06-26T08:55:29;8.65;;;2.10;;
59728;SDS011;45588;51.598;5.618;2023-06-26T08:57:56;3.42;;;1.70;;
59728;SDS011;45588;51.598;5.618;2023-06-26T09:00:22;7.72;;;2.47;;
59728;SDS011;45588;51.598;5.618;2023-06-26T09:02:47;5.90;;;2.00;;
59728;SDS011;45588;51.598;5.618;2023-06-26T09:05:13;4.47;;;1.88;;
59728;SDS011;45588;51.598;5.618;2023-06-26T09:07:38;7.53;;;2.00;;
59728;SDS011;45588;51.598;5.618;2023-06-26T09:10:03;5.93;;;2.30;;
59728;SDS011;45588;51.598;5.618;2023-06-26T09:12:29;5.75;;;2.00;;
59728;SDS011;45588;51.598;5.618;2023-06-26T09:14:55;7.00;;;2.28;;
59728;SDS011;45588;51.598;5.618;2023-06-26T09:17:24;6.15;;;2.28;;
59728;SDS011;45588;51.598;5.618;2023-06-26T09:19:49;6.63;;;2.38;;
59728;SDS011;45588;51.598;5.618;2023-06-26T09:22:14;6.22;;;2.50;;
59728;SDS011;45588;51.598;5.618;2023-06-26T09:24:40;6.25;;;2.00;;
59728;SDS011;45588;51.598;5.618;2023-06-26T09:27:06;5.32;;;2.35;;
59728;SDS011;45588;51.598;5.618;2023-06-26T09:29:31;7.38;;;2.15;;
59728;SDS011;45588;51.598;5.618;2023-06-26T09:31:58;7.40;;;2.15;;
59728;SDS011;45588;51.598;5.618;2023-06-26T09:34:29;7.32;;;2.63;;
59728;SDS011;45588;51.598;5.618;2023-06-26T09:39:20;3.78;;;1.73;;
59728;SDS011;45588;51.598;5.618;2023-06-26T09:41:45;4.45;;;1.83;;
59728;SDS011;45588;51.598;5.618;2023-06-26T09:44:12;9.50;;;2.17;;
59728;SDS011;45588;51.598;5.618;2023-06-26T09:46:40;5.57;;;1.90;;
59728;SDS011;45588;51.598;5.618;2023-06-26T09:51:33;5.45;;;1.92;;
59728;SDS011;45588;51.598;5.618;2023-06-26T09:53:59;5.47;;;2.03;;
59728;SDS011;45588;51.598;5.618;2023-06-26T09:56:25;5.22;;;2.33;;
59728;SDS011;45588;51.598;5.618;2023-06-26T09:58:50;4.05;;;1.80;;
59728;SDS011;45588;51.598;5.618;2023-06-26T10:01:16;5.65;;;2.17;;
59728;SDS011;45588;51.598;5.618;2023-06-26T10:03:42;5.10;;;1.63;;
59728;SDS011;45588;51.598;5.618;2023-06-26T10:06:07;4.05;;;1.70;;
59728;SDS011;45588;51.598;5.618;2023-06-26T10:08:34;5.43;;;1.80;;
59728;SDS011;45588;51.598;5.618;2023-06-26T10:10:59;5.28;;;1.90;;
59728;SDS011;45588;51.598;5.618;2023-06-26T10:13:27;4.20;;;1.63;;
59728;SDS011;45588;51.598;5.618;2023-06-26T10:15:55;3.08;;;1.65;;
59728;SDS011;45588;51.598;5.618;2023-06-26T10:18:23;7.70;;;1.52;;
59728;SDS011;45588;51.598;5.618;2023-06-26T10:20:49;4.20;;;1.73;;
59728;SDS011;45588;51.598;5.618;2023-06-26T10:23:15;7.13;;;1.80;;
59728;SDS011;45588;51.598;5.618;2023-06-26T10:25:44;4.32;;;1.20;;
59728;SDS011;45588;51.598;5.618;2023-06-26T10:28:10;8.95;;;2.13;;
59728;SDS011;45588;51.598;5.618;2023-06-26T10:30:37;2.90;;;1.38;;
59728;SDS011;45588;51.598;5.618;2023-06-26T10:33:03;3.85;;;1.75;;
59728;SDS011;45588;51.598;5.618;2023-06-26T10:35:29;4.63;;;1.50;;
59728;SDS011;45588;51.598;5.618;2023-06-26T10:37:59;5.10;;;2.00;;
59728;SDS011;45588;51.598;5.618;2023-06-26T10:40:25;5.35;;;1.80;;
59728;SDS011;45588;51.598;5.618;2023-06-26T10:42:51;4.60;;;1.77;;
59728;SDS011;45588;51.598;5.618;2023-06-26T10:45:20;3.38;;;1.48;;
59728;SDS011;45588;51.598;5.618;2023-06-26T10:47:46;5.63;;;1.63;;
59728;SDS011;45588;51.598;5.618;2023-06-26T10:50:23;3.90;;;1.60;;
59728;SDS011;45588;51.598;5.618;2023-06-26T10:55:32;2.83;;;1.73;;
59728;SDS011;45588;51.598;5.618;2023-06-26T10:57:57;3.53;;;1.75;;
59728;SDS011;45588;51.598;5.618;2023-06-26T11:00:22;5.60;;;1.70;;
59728;SDS011;45588;51.598;5.618;2023-06-26T11:02:51;4.77;;;2.30;;
59728;SDS011;45588;51.598;5.618;2023-06-26T11:12:57;8.60;;;2.28;;
59728;SDS011;45588;51.598;5.618;2023-06-26T11:15:24;4.57;;;1.92;;
59728;SDS011;45588;51.598;5.618;2023-06-26T11:17:49;4.25;;;1.77;;
59728;SDS011;45588;51.598;5.618;2023-06-26T11:20:15;4.20;;;1.80;;
59728;SDS011;45588;51.598;5.618;2023-06-26T11:22:41;5.88;;;1.75;;
59728;SDS011;45588;51.598;5.618;2023-06-26T11:25:07;4.72;;;1.90;;
59728;SDS011;45588;51.598;5.618;2023-06-26T11:29:58;10.57;;;1.87;;
59728;SDS011;45588;51.598;5.618;2023-06-26T11:32:23;4.53;;;1.80;;
59728;SDS011;45588;51.598;5.618;2023-06-26T11:34:50;4.88;;;1.95;;
59728;SDS011;45588;51.598;5.618;2023-06-26T11:37:16;4.60;;;1.63;;
59728;SDS011;45588;51.598;5.618;2023-06-26T11:39:41;3.92;;;1.90;;
59728;SDS011;45588;51.598;5.618;2023-06-26T11:42:07;4.93;;;2.30;;
59728;SDS011;45588;51.598;5.618;2023-06-26T11:44:32;7.55;;;1.80;;
59728;SDS011;45588;51.598;5.618;2023-06-26T11:47:04;5.57;;;1.70;;
59728;SDS011;45588;51.598;5.618;2023-06-26T11:49:30;5.60;;;1.70;;
59728;SDS011;45588;51.598;5.618;2023-06-26T11:51:55;4.15;;;1.70;;
59728;SDS011;45588;51.598;5.618;2023-06-26T11:54:24;7.32;;;2.03;;
59728;SDS011;45588;51.598;5.618;2023-06-26T11:56:57;7.20;;;2.40;;
59728;SDS011;45588;51.598;5.618;2023-06-26T11:59:23;7.35;;;2.50;;
59728;SDS011;45588;51.598;5.618;2023-06-26T12:01:49;8.55;;;1.92;;
59728;SDS011;45588;51.598;5.618;2023-06-26T12:04:15;6.47;;;1.80;;
59728;SDS011;45588;51.598;5.618;2023-06-26T12:06:42;3.67;;;2.00;;
59728;SDS011;45588;51.598;5.618;2023-06-26T12:09:08;6.82;;;2.05;;
59728;SDS011;45588;51.598;5.618;2023-06-26T12:11:35;5.43;;;2.30;;
59728;SDS011;45588;51.598;5.618;2023-06-26T12:14:01;4.32;;;1.70;;
59728;SDS011;45588;51.598;5.618;2023-06-26T12:16:27;7.20;;;1.63;;
59728;SDS011;45588;51.598;5.618;2023-06-26T12:18:57;6.47;;;2.50;;
59728;SDS011;45588;51.598;5.618;2023-06-26T12:24:06;4.38;;;1.70;;
59728;SDS011;45588;51.598;5.618;2023-06-26T12:26:31;6.28;;;1.85;;
59728;SDS011;45588;51.598;5.618;2023-06-26T12:29:02;5.03;;;2.10;;
59728;SDS011;45588;51.598;5.618;2023-06-26T12:31:30;4.13;;;1.60;;
59728;SDS011;45588;51.598;5.618;2023-06-26T12:33:56;8.30;;;1.90;;
59728;SDS011;45588;51.598;5.618;2023-06-26T12:36:21;4.93;;;2.13;;
59728;SDS011;45588;51.598;5.618;2023-06-26T12:38:48;4.13;;;1.87;;
59728;SDS011;45588;51.598;5.618;2023-06-26T12:41:13;6.45;;;1.80;;
59728;SDS011;45588;51.598;5.618;2023-06-26T12:43:41;5.43;;;2.30;;
59728;SDS011;45588;51.598;5.618;2023-06-26T12:46:06;4.35;;;1.77;;
59728;SDS011;45588;51.598;5.618;2023-06-26T12:51:10;2.92;;;1.80;;
59728;SDS011;45588;51.598;5.618;2023-06-26T12:53:35;8.82;;;2.00;;
59728;SDS011;45588;51.598;5.618;2023-06-26T12:56:00;2.92;;;1.52;;
59728;SDS011;45588;51.598;5.618;2023-06-26T12:58:25;6.07;;;2.03;;
59728;SDS011;45588;51.598;5.618;2023-06-26T13:00:50;4.10;;;2.00;;
59728;SDS011;45588;51.598;5.618;2023-06-26T13:03:18;4.00;;;1.98;;
59728;SDS011;45588;51.598;5.618;2023-06-26T13:05:45;2.40;;;1.60;;
59728;SDS011;45588;51.598;5.618;2023-06-26T13:08:10;4.00;;;1.60;;
59728;SDS011;45588;51.598;5.618;2023-06-26T13:10:36;3.35;;;1.40;;
59728;SDS011;45588;51.598;5.618;2023-06-26T13:13:01;4.10;;;1.80;;
59728;SDS011;45588;51.598;5.618;2023-06-26T13:15:27;3.47;;;1.50;;
59728;SDS011;45588;51.598;5.618;2023-06-26T13:17:53;2.70;;;1.50;;
59728;SDS011;45588;51.598;5.618;2023-06-26T13:20:18;3.10;;;1.50;;
59728;SDS011;45588;51.598;5.618;2023-06-26T13:22:43;3.80;;;1.60;;
59728;SDS011;45588;51.598;5.618;2023-06-26T13:25:08;2.30;;;1.40;;
59728;SDS011;45588;51.598;5.618;2023-06-26T13:27:34;8.07;;;1.50;;
59728;SDS011;45588;51.598;5.618;2023-06-26T13:29:59;4.00;;;1.80;;
59728;SDS011;45588;51.598;5.618;2023-06-26T13:32:24;5.68;;;1.50;;
59728;SDS011;45588;51.598;5.618;2023-06-26T13:34:49;5.37;;;1.50;;
59728;SDS011;45588;51.598;5.618;2023-06-26T13:37:14;5.33;;;1.77;;
59728;SDS011;45588;51.598;5.618;2023-06-26T13:39:40;5.63;;;1.63;;
59728;SDS011;45588;51.598;5.618;2023-06-26T13:42:05;3.37;;;1.70;;
59728;SDS011;45588;51.598;5.618;2023-06-26T13:44:30;5.93;;;1.88;;
59728;SDS011;45588;51.598;5.618;2023-06-26T13:46:55;3.08;;;1.88;;
59728;SDS011;45588;51.598;5.618;2023-06-26T13:49:21;3.97;;;1.70;;
59728;SDS011;45588;51.598;5.618;2023-06-26T13:51:46;5.40;;;1.90;;
59728;SDS011;45588;51.598;5.618;2023-06-26T13:54:13;3.83;;;1.42;;
59728;SDS011;45588;51.598;5.618;2023-06-26T13:56:38;3.67;;;1.50;;
59728;SDS011;45588;51.598;5.618;2023-06-26T13:59:03;4.82;;;1.67;;
59728;SDS011;45588;51.598;5.618;2023-06-26T14:01:29;7.03;;;1.77;;
59728;SDS011;45588;51.598;5.618;2023-06-26T14:03:54;2.88;;;1.75;;
59728;SDS011;45588;51.598;5.618;2023-06-26T14:06:20;5.40;;;2.03;;
59728;SDS011;45588;51.598;5.618;2023-06-26T14:08:45;3.97;;;2.03;;
59728;SDS011;45588;51.598;5.618;2023-06-26T14:11:10;6.00;;;1.83;;
59728;SDS011;45588;51.598;5.618;2023-06-26T14:13:35;6.73;;;1.83;;
59728;SDS011;45588;51.598;5.618;2023-06-26T14:16:00;4.67;;;1.33;;
59728;SDS011;45588;51.598;5.618;2023-06-26T14:18:26;6.10;;;1.80;;
59728;SDS011;45588;51.598;5.618;2023-06-26T14:20:52;2.92;;;1.65;;
59728;SDS011;45588;51.598;5.618;2023-06-26T14:23:18;4.88;;;1.60;;
59728;SDS011;45588;51.598;5.618;2023-06-26T14:25:43;3.17;;;1.70;;
59728;SDS011;45588;51.598;5.618;2023-06-26T14:28:09;2.88;;;1.67;;
59728;SDS011;45588;51.598;5.618;2023-06-26T14:30:34;3.58;;;1.90;;
59728;SDS011;45588;51.598;5.618;2023-06-26T14:32:59;3.77;;;1.40;;
59728;SDS011;45588;51.598;5.618;2023-06-26T14:35:24;3.57;;;1.67;;
59728;SDS011;45588;51.598;5.618;2023-06-26T14:37:49;3.50;;;1.53;;
59728;SDS011;45588;51.598;5.618;2023-06-26T14:40:15;5.10;;;1.88;;
59728;SDS011;45588;51.598;5.618;2023-06-26T14:42:40;3.67;;;1.50;;
59728;SDS011;45588;51.598;5.618;2023-06-26T14:45:05;3.88;;;1.80;;
59728;SDS011;45588;51.598;5.618;2023-06-26T14:47:31;6.53;;;2.00;;
59728;SDS011;45588;51.598;5.618;2023-06-26T14:49:56;3.90;;;1.60;;
59728;SDS011;45588;51.598;5.618;2023-06-26T14:52:21;4.03;;;1.50;;
59728;SDS011;45588;51.598;5.618;2023-06-26T14:54:46;3.30;;;1.60;;
59728;SDS011;45588;51.598;5.618;2023-06-26T14:57:11;3.97;;;1.37;;
59728;SDS011;45588;51.598;5.618;2023-06-26T14:59:37;4.00;;;1.60;;